San Pedro, Belize

7:43 PM CST on March 06, 2015 (GMT -0600)
Mosquito Coast | Change Station
CLOSE
Current Station
Personal Weather Station
Location: San Pedro Town, Ambergris Caye
Elevation: 40 ft
Nearby Weather Stations

Elev 40 ft 17.89 °N, 87.98 °W | Updated 2 minutes ago

Partly Cloudy
Partly Cloudy
80.2 °F
Feels Like 85 °F
N
15.0
Wind Variable Wind from East
Gusts 21.0 mph

Today
High -- | Low -- °F
--% Chance of Precip.
Yesterday
High -- | Low -- °F
Precip. -- in
6:07 AM 5:59 PM
Full, 98% visible
Pressure 30.07 in
Visibility 6.2 miles
Clouds Few 2000 ft
Heat Index 85 °F
Dew Point 75 °F
Humidity 83%
Rainfall in
Snow Depth Not available.
UV 0 out of 12
Pollen Not available.
Air Quality Not available.
Flu Activity Not available.
METAR MZBZ 070100Z 08006KT 9999 FEW020 27/23 A3007 Q1018 NOSIG

More Conditions Fewer Conditions

Pressure 30.07 in
Visibility 6.2 miles
Clouds Few 2000 ft
Heat Index 85 °F
Dew Point 75 °F
Humidity 83%
Rainfall in
Snow Depth Not available.
UV 0 out of 12
Pollen Not available.
Air Quality Not available.
Flu Activity Not available.
METAR MZBZ 070100Z 08006KT 9999 FEW020 27/23 A3007 Q1018 NOSIG

More Conditions Fewer Conditions

10-Day Weather Forecast

Almanac

Astronomy

Mar. 06, 2015 Rise Set
Actual Time
Civil Twilight
Nautical Twilight
Astronomical Twilight
Moon
Length of Visible Light
Length of Day
Tomorrow will be .
, % of the Moon is Illuminated

Today's Extremes

Country Highs Country Lows

Community

WunderPhotos

Upload Photos

1,803,494 photos uploaded!

WunderBlogs® & News

Nearby

Air Quality

  Air Quality AQ Index Pollutant
Not available.

Snow Depth

Station Depth Elevation

Earthquake Activity

City Distance Mag. Time & Date
Minimum magnitude displayed is 2.5.

Coastal Water Temperatures

Place Temperature

Nearby Weather Stations